Time;durP1;ratioP1;P1;durP2;ratioP2;P2;SDS_P1;SDS_P2;PMS_P1;PMS_P2;Temp;Humidity;BMP_temperature;BMP_pressure;BME280_temperature;BME280_humidity;BME280_pressure;Samples;Min_cycle;Max_cycle;Signal;HPM_P1;HPM_P2
2023/06/25 00:00:53;;;;;;;9.27;7.07;;;;;;;-145.41;100.00;58600.66;4989370;28;20084;-74
2023/06/25 00:03:18;;;;;;;9.30;7.63;;;;;;;-145.41;100.00;58600.66;4992630;28;20066;-73
2023/06/25 00:05:43;;;;;;;10.82;8.00;;;;;;;-145.41;100.00;58600.66;4990107;28;20026;-73
2023/06/25 00:08:09;;;;;;;12.02;8.52;;;;;;;-145.41;100.00;58600.66;4990095;28;20112;-74
2023/06/25 00:10:34;;;;;;;11.48;8.85;;;;;;;-145.41;100.00;58600.66;5000693;28;20501;-74
2023/06/25 00:13:00;;;;;;;10.20;9.02;;;;;;;-145.41;100.00;58600.66;4990401;28;20069;-72
2023/06/25 00:15:27;;;;;;;9.90;8.02;;;;;;;-145.41;100.00;58600.66;4988986;28;20035;-73
2023/06/25 00:17:52;;;;;;;11.90;8.48;;;;;;;-145.41;100.00;58600.66;4992696;28;20084;-73
2023/06/25 00:20:18;;;;;;;9.02;7.72;;;;;;;-145.41;100.00;58600.66;4988774;28;20034;-74
2023/06/25 00:22:44;;;;;;;10.95;8.20;;;;;;;-145.41;100.00;58600.66;4987761;28;20039;-74
2023/06/25 00:25:09;;;;;;;12.98;8.80;;;;;;;-145.41;100.00;58600.66;5001208;28;20027;-74
2023/06/25 00:27:34;;;;;;;13.27;10.38;;;;;;;-145.41;100.00;58600.66;4986865;28;20493;-73
2023/06/25 00:30:00;;;;;;;12.10;9.30;;;;;;;-145.41;100.00;58600.66;4986443;28;20039;-74
2023/06/25 00:32:26;;;;;;;11.68;8.82;;;;;;;-145.41;100.00;58600.66;4992224;28;20041;-74
2023/06/25 00:34:57;;;;;;;9.32;7.70;;;;;;;-145.41;100.00;58600.66;4975572;28;20042;-74
2023/06/25 00:37:23;;;;;;;10.38;7.63;;;;;;;-145.41;100.00;58600.66;5005038;28;20034;-74
2023/06/25 00:39:48;;;;;;;9.77;7.97;;;;;;;-145.41;100.00;58600.66;4969270;28;20484;-73
2023/06/25 00:42:15;;;;;;;10.93;8.48;;;;;;;-145.41;100.00;58600.66;4989404;28;20111;-75
2023/06/25 00:44:40;;;;;;;12.30;7.45;;;;;;;-145.41;100.00;58600.66;4974959;28;20031;-73
2023/06/25 00:47:12;;;;;;;11.35;7.97;;;;;;;-145.41;100.00;58600.66;4988619;28;20031;-74
2023/06/25 00:49:39;;;;;;;8.48;7.18;;;;;;;-145.41;100.00;58600.66;4987501;28;20062;-73
2023/06/25 00:52:08;;;;;;;9.85;7.70;;;;;;;-145.41;100.00;58600.66;4988582;28;20034;-74
2023/06/25 00:54:43;;;;;;;11.48;8.98;;;;;;;-145.41;100.00;58600.66;4984324;28;20035;-74
2023/06/25 00:57:10;;;;;;;12.13;8.13;;;;;;;-145.41;100.00;58600.66;4988612;28;20046;-73
2023/06/25 00:59:39;;;;;;;11.40;8.75;;;;;;;-145.41;100.00;58600.66;4988167;28;20042;-74
2023/06/25 01:02:50;;;;;;;12.02;9.13;;;;;;;-145.41;100.00;58600.66;5003433;28;20129;-74
2023/06/25 01:05:39;;;;;;;10.32;8.75;;;;;;;-145.41;100.00;58600.66;4897431;29;20036;-74
2023/06/25 01:08:08;;;;;;;11.30;8.95;;;;;;;-145.41;100.00;58600.66;4982927;28;20043;-73
2023/06/25 01:10:38;;;;;;;10.68;8.75;;;;;;;-145.41;100.00;58600.66;5001638;28;20034;-74
2023/06/25 01:13:04;;;;;;;10.68;7.95;;;;;;;-145.41;100.00;58600.66;4989150;28;20038;-73
2023/06/25 01:15:30;;;;;;;12.63;8.27;;;;;;;-145.41;100.00;58600.66;4975299;28;20483;-73
2023/06/25 01:17:57;;;;;;;10.68;8.07;;;;;;;-145.41;100.00;58600.66;4979081;28;20058;-73
2023/06/25 01:20:27;;;;;;;9.15;7.60;;;;;;;-145.41;100.00;58600.66;4987828;28;20546;-73
2023/06/25 01:22:56;;;;;;;10.55;7.72;;;;;;;-145.41;100.00;58600.66;4988613;28;20065;-74
2023/06/25 01:25:21;;;;;;;7.95;6.95;;;;;;;-145.41;100.00;58600.66;4985715;28;20069;-73
2023/06/25 01:27:50;;;;;;;9.52;7.93;;;;;;;-145.41;100.00;58600.66;4988682;28;20026;-73
2023/06/25 01:30:17;;;;;;;11.52;8.32;;;;;;;-145.41;100.00;58600.66;4965291;28;20035;-73
2023/06/25 01:32:44;;;;;;;10.02;7.63;;;;;;;-145.41;100.00;58600.66;4991880;28;20041;-73
2023/06/25 01:35:10;;;;;;;9.55;7.63;;;;;;;-145.41;100.00;58600.66;4990935;28;20046;-72
2023/06/25 01:37:37;;;;;;;11.63;8.00;;;;;;;-145.41;100.00;58600.66;4985882;28;20349;-74
2023/06/25 01:40:02;;;;;;;11.25;8.82;;;;;;;-145.41;100.00;58600.66;4986693;28;20038;-73
2023/06/25 01:42:28;;;;;;;11.55;8.98;;;;;;;-145.41;100.00;58600.66;4989708;28;20034;-73
2023/06/25 01:44:53;;;;;;;12.18;8.52;;;;;;;-145.41;100.00;58600.66;5006539;28;20042;-73
2023/06/25 01:47:18;;;;;;;11.45;7.72;;;;;;;-145.41;100.00;58600.66;4986919;28;20057;-73
2023/06/25 01:49:44;;;;;;;9.40;7.57;;;;;;;-145.41;100.00;58600.66;5001011;28;20036;-73
2023/06/25 01:52:09;;;;;;;9.15;7.07;;;;;;;-145.41;100.00;58600.66;4988263;28;20046;-73
2023/06/25 01:54:35;;;;;;;9.48;7.35;;;;;;;-145.41;100.00;58600.66;4984752;28;20038;-73
2023/06/25 01:57:01;;;;;;;8.50;6.32;;;;;;;-145.41;100.00;58600.66;4987264;28;20034;-73
2023/06/25 01:59:27;;;;;;;9.30;7.78;;;;;;;-145.41;100.00;58600.66;4970236;28;20035;-73
2023/06/25 02:01:53;;;;;;;9.13;7.20;;;;;;;-145.41;100.00;58600.66;4975043;28;20037;-73
2023/06/25 02:04:19;;;;;;;11.07;7.82;;;;;;;-145.41;100.00;58600.66;4984878;28;20105;-73
2023/06/25 02:06:44;;;;;;;11.50;8.60;;;;;;;-145.41;100.00;58600.66;4989425;28;20044;-73
2023/06/25 02:09:10;;;;;;;9.60;7.88;;;;;;;-145.41;100.00;58600.66;4977984;28;20061;-73
2023/06/25 02:11:36;;;;;;;10.05;7.97;;;;;;;-145.41;100.00;58600.66;4986657;28;20711;-73
2023/06/25 02:14:03;;;;;;;9.63;7.35;;;;;;;-145.41;100.00;58600.66;4973972;28;20101;-73
2023/06/25 02:16:28;;;;;;;10.73;7.35;;;;;;;-145.41;100.00;58600.66;4977179;28;20058;-73
2023/06/25 02:18:53;;;;;;;12.75;7.97;;;;;;;-145.41;100.00;58600.66;4990640;28;20061;-73
2023/06/25 02:21:19;;;;;;;13.27;7.70;;;;;;;-145.41;100.00;58600.66;4983810;28;20027;-73
2023/06/25 02:23:44;;;;;;;10.60;7.70;;;;;;;-145.41;100.00;58600.66;4970563;28;20604;-74
2023/06/25 02:26:10;;;;;;;11.82;8.98;;;;;;;-145.41;100.00;58600.66;4984566;28;20125;-73
2023/06/25 02:28:35;;;;;;;9.65;7.65;;;;;;;-145.41;100.00;58600.66;4983506;28;20053;-73
2023/06/25 02:31:00;;;;;;;11.00;7.53;;;;;;;-145.41;100.00;58600.66;4986535;28;20061;-74
2023/06/25 02:33:25;;;;;;;10.02;6.72;;;;;;;-145.41;100.00;58600.66;4975979;28;20038;-73
2023/06/25 02:35:51;;;;;;;9.73;6.90;;;;;;;-145.41;100.00;58600.66;4987544;28;20048;-73
2023/06/25 02:38:16;;;;;;;11.02;6.85;;;;;;;-145.41;100.00;58600.66;4989482;28;20037;-73
2023/06/25 02:40:41;;;;;;;13.18;7.57;;;;;;;-145.41;100.00;58600.66;4989758;28;20034;-73
2023/06/25 02:43:07;;;;;;;11.18;8.48;;;;;;;-145.41;100.00;58600.66;4984388;28;20036;-73
2023/06/25 02:45:32;;;;;;;10.70;7.45;;;;;;;-145.41;100.00;58600.66;4996844;28;20030;-73
2023/06/25 02:48:02;;;;;;;10.45;8.60;;;;;;;-145.41;100.00;58600.66;5011752;28;20081;-73
2023/06/25 02:50:27;;;;;;;12.15;8.65;;;;;;;-145.41;100.00;58600.66;5012069;28;20026;-73
2023/06/25 02:52:53;;;;;;;11.73;8.73;;;;;;;-145.41;100.00;58600.66;4985309;28;20065;-73
2023/06/25 02:55:18;;;;;;;8.85;7.30;;;;;;;-145.41;100.00;58600.66;4996990;28;20061;-73
2023/06/25 02:57:44;;;;;;;8.52;6.82;;;;;;;-145.41;100.00;58600.66;4996836;28;20381;-73
2023/06/25 03:00:10;;;;;;;7.97;6.60;;;;;;;-145.41;100.00;58600.66;4984103;28;20436;-73
2023/06/25 03:02:38;;;;;;;9.20;8.05;;;;;;;-145.41;100.00;58600.66;4996540;28;20036;-73
2023/06/25 03:05:03;;;;;;;11.55;8.68;;;;;;;-145.41;100.00;58600.66;4995392;28;20034;-73
2023/06/25 03:07:29;;;;;;;9.77;7.80;;;;;;;-145.41;100.00;58600.66;4987760;28;20523;-73
2023/06/25 03:09:56;;;;;;;11.18;8.38;;;;;;;-145.41;100.00;58600.66;4995777;28;20041;-73
2023/06/25 03:12:21;;;;;;;10.30;7.53;;;;;;;-145.41;100.00;58600.66;4996100;28;20034;-74
2023/06/25 03:14:48;;;;;;;11.15;8.50;;;;;;;-145.41;100.00;58600.66;5012783;28;20125;-73
2023/06/25 03:17:13;;;;;;;11.30;8.40;;;;;;;-145.41;100.00;58600.66;4997430;28;20037;-73
2023/06/25 03:19:39;;;;;;;9.05;7.18;;;;;;;-145.41;100.00;58600.66;4988100;28;20440;-73
2023/06/25 03:22:05;;;;;;;8.32;6.75;;;;;;;-145.41;100.00;58600.66;4997243;28;20030;-73
2023/06/25 03:24:33;;;;;;;10.98;7.18;;;;;;;-145.41;100.00;58600.66;4997088;28;20094;-73
2023/06/25 03:27:00;;;;;;;9.02;7.18;;;;;;;-145.41;100.00;58600.66;4979820;28;20045;-73
2023/06/25 03:29:27;;;;;;;12.30;8.13;;;;;;;-145.41;100.00;58600.66;4976105;28;20030;-74
2023/06/25 03:31:52;;;;;;;11.07;8.57;;;;;;;-145.41;100.00;58600.66;4978043;28;20044;-73
2023/06/25 03:34:21;;;;;;;10.55;7.53;;;;;;;-145.41;100.00;58600.66;4986866;28;20022;-73
2023/06/25 03:36:47;;;;;;;9.07;7.25;;;;;;;-145.41;100.00;58600.66;5012259;28;20036;-73
2023/06/25 03:39:12;;;;;;;9.88;7.80;;;;;;;-145.41;100.00;58600.66;4988848;28;20121;-73
2023/06/25 03:41:38;;;;;;;8.10;6.97;;;;;;;-145.41;100.00;58600.66;4997130;28;20109;-73
2023/06/25 03:44:04;;;;;;;11.40;7.97;;;;;;;-145.41;100.00;58600.66;4985247;28;20034;-72
2023/06/25 03:46:30;;;;;;;10.27;7.88;;;;;;;-145.41;100.00;58600.66;5009805;28;20504;-73
2023/06/25 03:48:56;;;;;;;8.40;6.93;;;;;;;-145.41;100.00;58600.66;4990290;28;20034;-73
2023/06/25 03:51:23;;;;;;;11.10;7.80;;;;;;;-145.41;100.00;58600.66;5009351;28;20157;-73
2023/06/25 03:53:48;;;;;;;11.30;8.18;;;;;;;-145.41;100.00;58600.66;4980354;28;20129;-73
2023/06/25 03:56:13;;;;;;;8.55;7.13;;;;;;;-145.41;100.00;58600.66;4994195;28;20034;-73
2023/06/25 03:58:39;;;;;;;9.05;7.50;;;;;;;-145.41;100.00;58600.66;5008945;28;20026;-73
2023/06/25 04:01:04;;;;;;;9.75;8.05;;;;;;;-145.41;100.00;58600.66;4991721;28;20435;-73
2023/06/25 04:03:30;;;;;;;10.13;8.00;;;;;;;-145.41;100.00;58600.66;4980755;28;20033;-73
2023/06/25 04:05:55;;;;;;;11.68;7.07;;;;;;;-145.41;100.00;58600.66;4992949;28;20444;-74
2023/06/25 04:08:20;;;;;;;10.82;8.43;;;;;;;-145.41;100.00;58600.66;5008537;28;20428;-73
2023/06/25 04:10:46;;;;;;;11.75;8.18;;;;;;;-145.41;100.00;58600.66;4982447;28;20030;-73
2023/06/25 04:13:11;;;;;;;9.32;7.75;;;;;;;-145.41;100.00;58600.66;5008901;28;20030;-74
2023/06/25 04:15:37;;;;;;;9.45;7.47;;;;;;;-145.41;100.00;58600.66;4976404;28;20499;-73
2023/06/25 04:18:02;;;;;;;11.82;7.78;;;;;;;-145.41;100.00;58600.66;4979336;28;20471;-73
2023/06/25 04:20:29;;;;;;;11.77;8.50;;;;;;;-145.41;100.00;58600.66;4993222;28;20034;-73
2023/06/25 04:22:55;;;;;;;11.45;8.27;;;;;;;-145.41;100.00;58600.66;4976368;28;20515;-73
2023/06/25 04:25:21;;;;;;;12.00;8.88;;;;;;;-145.41;100.00;58600.66;5008857;28;20030;-74
2023/06/25 04:27:48;;;;;;;11.93;8.55;;;;;;;-145.41;100.00;58600.66;4975485;28;20030;-73
2023/06/25 04:30:14;;;;;;;11.05;8.90;;;;;;;-145.41;100.00;58600.66;4980173;28;20093;-73
2023/06/25 04:32:40;;;;;;;12.23;8.25;;;;;;;-145.41;100.00;58600.66;4992392;28;20045;-73
2023/06/25 04:35:06;;;;;;;11.18;7.57;;;;;;;-145.41;100.00;58600.66;4980295;28;20034;-73
2023/06/25 04:37:31;;;;;;;9.85;7.47;;;;;;;-145.41;100.00;58600.66;4975955;28;20072;-73
2023/06/25 04:39:57;;;;;;;10.68;7.95;;;;;;;-145.41;100.00;58600.66;5004130;28;20488;-73
2023/06/25 04:42:22;;;;;;;10.43;7.50;;;;;;;-145.41;100.00;58600.66;4973136;28;20426;-73
2023/06/25 04:44:48;;;;;;;9.32;6.90;;;;;;;-145.41;100.00;58600.66;4993168;28;20088;-73
2023/06/25 04:47:13;;;;;;;11.50;7.57;;;;;;;-145.41;100.00;58600.66;4986855;28;20105;-73
2023/06/25 04:49:38;;;;;;;10.77;7.97;;;;;;;-145.41;100.00;58600.66;4991915;28;20503;-73
2023/06/25 04:52:04;;;;;;;10.98;8.27;;;;;;;-145.41;100.00;58600.66;5006663;28;20030;-74
2023/06/25 04:54:29;;;;;;;12.55;8.10;;;;;;;-145.41;100.00;58600.66;4992659;28;20061;-73
2023/06/25 04:56:55;;;;;;;10.15;8.27;;;;;;;-145.41;100.00;58600.66;4992944;28;20034;-73
2023/06/25 04:59:20;;;;;;;15.07;9.52;;;;;;;-145.41;100.00;58600.66;4992467;28;20065;-73
2023/06/25 05:01:45;;;;;;;13.27;8.88;;;;;;;-145.41;100.00;58600.66;4991830;28;20034;-73
2023/06/25 05:04:11;;;;;;;11.98;8.40;;;;;;;-145.41;100.00;58600.66;4992674;28;20030;-73
2023/06/25 05:06:36;;;;;;;9.18;6.72;;;;;;;-145.41;100.00;58600.66;4991667;28;20042;-74
2023/06/25 05:09:01;;;;;;;10.93;7.53;;;;;;;-145.41;100.00;58600.66;4989125;28;20053;-73
2023/06/25 05:11:27;;;;;;;11.82;7.70;;;;;;;-145.41;100.00;58600.66;4992460;28;20042;-74
2023/06/25 05:13:52;;;;;;;10.65;7.35;;;;;;;-145.41;100.00;58600.66;4992705;28;20049;-74
2023/06/25 05:16:17;;;;;;;11.30;7.32;;;;;;;-145.41;100.00;58600.66;4991330;28;20030;-73
2023/06/25 05:18:43;;;;;;;12.68;6.90;;;;;;;-145.41;100.00;58600.66;4989942;28;20096;-73
2023/06/25 05:21:08;;;;;;;11.15;7.13;;;;;;;-145.41;100.00;58600.66;4992161;28;20046;-74
2023/06/25 05:23:42;;;;;;;10.50;7.38;;;;;;;-145.41;100.00;58600.66;4992723;28;20030;-74
2023/06/25 05:26:07;;;;;;;11.93;7.45;;;;;;;-145.41;100.00;58600.66;5005252;28;20034;-74
2023/06/25 05:28:33;;;;;;;10.00;7.40;;;;;;;-145.41;100.00;58600.66;4987622;28;20057;-74
2023/06/25 05:30:58;;;;;;;12.68;7.53;;;;;;;-145.41;100.00;58600.66;4991501;28;20064;-73
2023/06/25 05:33:23;;;;;;;8.63;6.88;;;;;;;-145.41;100.00;58600.66;4990994;28;20113;-74
2023/06/25 05:35:49;;;;;;;11.65;7.70;;;;;;;-145.41;100.00;58600.66;4992114;28;20112;-73
2023/06/25 05:38:14;;;;;;;9.30;7.03;;;;;;;-145.41;100.00;58600.66;4992184;28;20440;-74
2023/06/25 05:40:39;;;;;;;10.65;6.45;;;;;;;-145.41;100.00;58600.66;4989562;28;20034;-74
2023/06/25 05:43:05;;;;;;;13.10;7.80;;;;;;;-145.41;100.00;58600.66;4988263;28;20046;-74
2023/06/25 05:45:30;;;;;;;10.23;7.13;;;;;;;-145.41;100.00;58600.66;4991989;28;20038;-74
2023/06/25 05:47:55;;;;;;;10.95;7.38;;;;;;;-145.41;100.00;58600.66;4988910;28;20037;-73
2023/06/25 05:50:21;;;;;;;12.15;7.05;;;;;;;-145.41;100.00;58600.66;4987640;28;20053;-73
2023/06/25 05:52:46;;;;;;;9.18;7.10;;;;;;;-145.41;100.00;58600.66;4992022;28;20038;-73
2023/06/25 05:55:12;;;;;;;9.15;6.68;;;;;;;-145.41;100.00;58600.66;4973771;28;20070;-74
2023/06/25 05:57:37;;;;;;;12.05;7.35;;;;;;;-145.41;100.00;58600.66;4979310;28;20481;-74
2023/06/25 06:00:04;;;;;;;9.23;7.07;;;;;;;-145.41;100.00;58600.66;4991312;28;20042;-74
2023/06/25 06:02:38;;;;;;;11.50;6.85;;;;;;;-145.41;100.00;58600.66;4991377;28;20038;-73
2023/06/25 06:05:04;;;;;;;6.95;5.35;;;;;;;-145.41;100.00;58600.66;4991874;28;20042;-74
2023/06/25 06:07:29;;;;;;;9.68;7.05;;;;;;;-145.41;100.00;58600.66;4991500;28;20034;-74
2023/06/25 06:09:54;;;;;;;8.68;6.03;;;;;;;-145.41;100.00;58600.66;4989358;28;20034;-74
2023/06/25 06:12:20;;;;;;;10.10;6.47;;;;;;;-145.41;100.00;58600.66;4991726;28;20069;-74
2023/06/25 06:14:45;;;;;;;8.65;5.35;;;;;;;-145.41;100.00;58600.66;4990495;28;20108;-74
2023/06/25 06:17:11;;;;;;;9.82;6.05;;;;;;;-145.41;100.00;58600.66;4991659;28;20022;-74
2023/06/25 06:19:36;;;;;;;9.85;5.45;;;;;;;-145.41;100.00;58600.66;4990653;28;20041;-74
2023/06/25 06:22:01;;;;;;;8.07;6.55;;;;;;;-145.41;100.00;58600.66;4990017;28;20042;-74
2023/06/25 06:24:27;;;;;;;11.48;5.13;;;;;;;-145.41;100.00;58600.66;4991688;28;20540;-74
2023/06/25 06:26:52;;;;;;;8.25;5.47;;;;;;;-145.41;100.00;58600.66;4986005;28;20443;-74
2023/06/25 06:29:19;;;;;;;11.35;6.15;;;;;;;-145.41;100.00;58600.66;4986097;28;20030;-74
2023/06/25 06:31:44;;;;;;;11.80;6.40;;;;;;;-145.41;100.00;58600.66;4988686;28;20053;-74
2023/06/25 06:34:10;;;;;;;8.18;5.88;;;;;;;-145.41;100.00;58600.66;4991436;28;20497;-74
2023/06/25 06:36:35;;;;;;;7.13;5.85;;;;;;;-145.41;100.00;58600.66;4991638;28;20038;-74
2023/06/25 06:39:00;;;;;;;8.48;5.60;;;;;;;-145.41;100.00;58600.66;4987818;28;20108;-74
2023/06/25 06:41:25;;;;;;;9.25;5.28;;;;;;;-145.41;100.00;58600.66;4989609;28;20038;-74
2023/06/25 06:43:51;;;;;;;6.57;5.35;;;;;;;-145.41;100.00;58600.66;4991508;28;20038;-74
2023/06/25 06:46:16;;;;;;;12.38;5.72;;;;;;;-145.41;100.00;58600.66;5006259;28;20045;-74
2023/06/25 06:48:43;;;;;;;6.50;5.10;;;;;;;-145.41;100.00;58600.66;4990895;28;20125;-73
2023/06/25 06:51:08;;;;;;;7.70;5.32;;;;;;;-145.41;100.00;58600.66;4990317;28;20042;-74
2023/06/25 06:53:33;;;;;;;9.23;5.20;;;;;;;-145.41;100.00;58600.66;4991254;28;20093;-75
2023/06/25 06:55:59;;;;;;;6.47;5.55;;;;;;;-145.41;100.00;58600.66;4991353;28;20046;-74
2023/06/25 06:58:24;;;;;;;8.50;5.55;;;;;;;-145.41;100.00;58600.66;4990369;28;20117;-74
2023/06/25 07:00:49;;;;;;;8.13;5.18;;;;;;;-145.41;100.00;58600.66;4987497;28;20117;-74
2023/06/25 07:03:15;;;;;;;9.60;5.13;;;;;;;-145.41;100.00;58600.66;4990768;28;20061;-74
2023/06/25 07:05:40;;;;;;;6.18;4.38;;;;;;;-145.41;100.00;58600.66;4973284;28;20049;-73
2023/06/25 07:08:05;;;;;;;7.50;4.65;;;;;;;-145.41;100.00;58600.66;4990244;28;20032;-74
2023/06/25 07:10:31;;;;;;;8.38;4.78;;;;;;;-145.41;100.00;58600.66;4975724;28;20041;-74
2023/06/25 07:12:56;;;;;;;7.18;4.43;;;;;;;-145.41;100.00;58600.66;4990897;28;20477;-74
2023/06/25 07:15:21;;;;;;;10.20;5.50;;;;;;;-145.41;100.00;58600.66;4990614;28;20045;-74
2023/06/25 07:17:47;;;;;;;6.63;5.50;;;;;;;-145.41;100.00;58600.66;5003801;28;20034;-74
2023/06/25 07:20:12;;;;;;;6.45;4.82;;;;;;;-145.41;100.00;58600.66;4986140;28;20043;-74
2023/06/25 07:22:40;;;;;;;7.80;5.35;;;;;;;-145.41;100.00;58600.66;4990575;28;20037;-74
2023/06/25 07:25:09;;;;;;;7.53;4.60;;;;;;;-145.41;100.00;58600.66;4988685;28;20042;-74
2023/06/25 07:27:34;;;;;;;6.80;4.72;;;;;;;-145.41;100.00;58600.66;4991759;28;20034;-73
2023/06/25 07:30:00;;;;;;;5.68;4.53;;;;;;;-145.41;100.00;58600.66;4993952;28;20048;-74
2023/06/25 07:32:25;;;;;;;6.40;5.18;;;;;;;-145.41;100.00;58600.66;4994523;28;20049;-74
2023/06/25 07:34:50;;;;;;;12.70;5.78;;;;;;;-145.41;100.00;58600.66;4976329;28;20042;-74
2023/06/25 07:37:16;;;;;;;8.20;4.90;;;;;;;-145.41;100.00;58600.66;4993395;28;20065;-74
2023/06/25 07:39:41;;;;;;;8.27;5.07;;;;;;;-145.41;100.00;58600.66;4993849;28;20042;-74
2023/06/25 07:42:06;;;;;;;7.20;4.25;;;;;;;-145.41;100.00;58600.66;4991741;28;20038;-74
2023/06/25 07:44:32;;;;;;;7.88;4.57;;;;;;;-145.41;100.00;58600.66;4994222;28;20026;-74
2023/06/25 07:46:57;;;;;;;7.90;4.40;;;;;;;-145.41;100.00;58600.66;4993359;28;20035;-74
2023/06/25 07:49:22;;;;;;;6.53;4.85;;;;;;;-145.41;100.00;58600.66;5008746;28;20034;-75
2023/06/25 07:51:53;;;;;;;5.57;4.65;;;;;;;-145.41;100.00;58600.66;4994348;28;20034;-74
2023/06/25 07:54:18;;;;;;;6.30;4.10;;;;;;;-145.41;100.00;58600.66;4994360;28;20039;-74
2023/06/25 07:56:44;;;;;;;8.40;4.15;;;;;;;-145.41;100.00;58600.66;4994045;28;20034;-74
2023/06/25 07:59:13;;;;;;;6.60;4.22;;;;;;;-145.41;100.00;58600.66;4993148;28;20562;-74
2023/06/25 08:01:39;;;;;;;6.15;4.70;;;;;;;-145.41;100.00;58600.66;4993943;28;20034;-74
2023/06/25 08:04:05;;;;;;;7.85;4.43;;;;;;;-145.41;100.00;58600.66;4994281;28;20081;-74
2023/06/25 08:06:30;;;;;;;7.90;5.50;;;;;;;-145.41;100.00;58600.66;4994223;28;20084;-74
2023/06/25 08:08:55;;;;;;;6.82;4.20;;;;;;;-145.41;100.00;58600.66;4992950;28;20050;-74
2023/06/25 08:11:21;;;;;;;6.45;3.90;;;;;;;-145.41;100.00;58600.66;4994108;28;20117;-74
2023/06/25 08:13:46;;;;;;;6.35;4.30;;;;;;;-145.41;100.00;58600.66;4993279;28;20065;-74
2023/06/25 08:16:11;;;;;;;7.57;4.32;;;;;;;-145.41;100.00;58600.66;4992178;28;20463;-74
2023/06/25 08:18:36;;;;;;;6.45;4.22;;;;;;;-145.41;100.00;58600.66;4988930;28;20101;-74
2023/06/25 08:21:02;;;;;;;7.55;4.95;;;;;;;-145.41;100.00;58600.66;4988482;28;20045;-74
2023/06/25 08:23:27;;;;;;;5.60;4.00;;;;;;;-145.41;100.00;58600.66;4993830;28;20054;-74
2023/06/25 08:25:56;;;;;;;4.95;3.65;;;;;;;-145.41;100.00;58600.66;4993855;28;20031;-74
2023/06/25 08:28:21;;;;;;;6.50;4.45;;;;;;;-145.41;100.00;58600.66;4989723;28;20026;-74
2023/06/25 08:30:47;;;;;;;8.05;4.40;;;;;;;-145.41;100.00;58600.66;4992915;28;20066;-74
2023/06/25 08:33:12;;;;;;;8.48;4.30;;;;;;;-145.41;100.00;58600.66;4993196;28;20034;-74
2023/06/25 08:35:38;;;;;;;5.45;4.50;;;;;;;-145.41;100.00;58600.66;4993294;28;20062;-74
2023/06/25 08:38:03;;;;;;;7.30;4.50;;;;;;;-145.41;100.00;58600.66;4991968;28;20042;-74
2023/06/25 08:40:30;;;;;;;5.93;4.13;;;;;;;-145.41;100.00;58600.66;4992096;28;20229;-74
2023/06/25 08:42:56;;;;;;;7.55;4.43;;;;;;;-145.41;100.00;58600.66;4992320;28;20030;-74
2023/06/25 08:45:21;;;;;;;4.63;3.65;;;;;;;-145.41;100.00;58600.66;4991954;28;20576;-74
2023/06/25 08:47:53;;;;;;;7.32;4.53;;;;;;;-145.41;100.00;58600.66;4975903;28;20066;-74
2023/06/25 08:50:19;;;;;;;11.57;4.60;;;;;;;-145.41;100.00;58600.66;4991763;28;20030;-74
2023/06/25 08:52:45;;;;;;;7.18;4.30;;;;;;;-145.41;100.00;58600.66;4992289;28;20045;-74
2023/06/25 08:55:11;;;;;;;6.63;4.55;;;;;;;-145.41;100.00;58600.66;4992957;28;20031;-74
2023/06/25 08:57:36;;;;;;;8.48;4.07;;;;;;;-145.41;100.00;58600.66;4990319;28;20480;-74
2023/06/25 09:00:03;;;;;;;6.90;4.00;;;;;;;-145.41;100.00;58600.66;4991923;28;20038;-74
2023/06/25 09:02:28;;;;;;;8.60;4.25;;;;;;;-145.41;100.00;58600.66;4993089;28;20034;-74
2023/06/25 09:05:05;;;;;;;5.18;3.97;;;;;;;-145.41;100.00;58600.66;4993046;28;20045;-74
2023/06/25 09:07:34;;;;;;;4.47;3.50;;;;;;;-145.41;100.00;58600.66;4989436;28;20512;-74
2023/06/25 09:09:59;;;;;;;5.93;3.20;;;;;;;-145.41;100.00;58600.66;4991110;28;20141;-74
2023/06/25 09:12:25;;;;;;;5.32;3.95;;;;;;;-145.41;100.00;58600.66;4990034;28;20112;-74
2023/06/25 09:14:50;;;;;;;5.63;3.70;;;;;;;-145.41;100.00;58600.66;4981588;28;20133;-74
2023/06/25 09:17:22;;;;;;;4.47;3.75;;;;;;;-145.41;100.00;58600.66;4992703;28;20034;-74
2023/06/25 09:19:48;;;;;;;5.82;3.35;;;;;;;-145.41;100.00;58600.66;4989580;28;20030;-75
2023/06/25 09:22:13;;;;;;;5.15;3.60;;;;;;;-145.41;100.00;58600.66;4974880;28;20499;-74
2023/06/25 09:24:43;;;;;;;4.60;3.30;;;;;;;-145.41;100.00;58600.66;4992092;28;20910;-74
2023/06/25 09:27:10;;;;;;;5.18;3.30;;;;;;;-145.41;100.00;58600.66;4992574;28;20112;-74
2023/06/25 09:29:36;;;;;;;5.15;3.67;;;;;;;-145.41;100.00;58600.66;4973910;28;20117;-74
2023/06/25 09:32:09;;;;;;;4.63;3.60;;;;;;;-145.41;100.00;58600.66;4992361;28;20035;-74
2023/06/25 09:34:34;;;;;;;5.30;3.40;;;;;;;-145.41;100.00;58600.66;4989278;28;20467;-74
2023/06/25 09:37:02;;;;;;;7.50;3.42;;;;;;;-145.41;100.00;58600.66;4990650;28;20117;-74
2023/06/25 09:39:27;;;;;;;6.18;3.22;;;;;;;-145.41;100.00;58600.66;4991580;28;20041;-74
2023/06/25 09:41:53;;;;;;;3.95;2.92;;;;;;;-145.41;100.00;58600.66;4992405;28;20039;-74
2023/06/25 09:44:21;;;;;;;5.03;3.78;;;;;;;-145.41;100.00;58600.66;4992314;28;20083;-74
2023/06/25 09:46:48;;;;;;;5.80;3.85;;;;;;;-145.41;100.00;58600.66;4990438;28;20034;-74
2023/06/25 09:49:15;;;;;;;5.22;3.40;;;;;;;-145.41;100.00;58600.66;4986366;28;20512;-74
2023/06/25 09:51:53;;;;;;;4.72;3.50;;;;;;;-145.41;100.00;58600.66;4991859;28;20030;-74
2023/06/25 09:54:22;;;;;;;4.72;3.53;;;;;;;-145.41;100.00;58600.66;4989943;28;20547;-74
2023/06/25 09:56:49;;;;;;;5.25;3.67;;;;;;;-145.41;100.00;58600.66;4991965;28;20030;-74
2023/06/25 09:59:15;;;;;;;5.55;3.08;;;;;;;-145.41;100.00;58600.66;4991380;28;20507;-74
2023/06/25 10:01:40;;;;;;;6.60;3.03;;;;;;;-145.41;100.00;58600.66;4991726;28;20054;-74
2023/06/25 10:04:06;;;;;;;4.55;3.10;;;;;;;-145.41;100.00;58600.66;4991881;28;20045;-74
2023/06/25 10:06:33;;;;;;;5.03;3.45;;;;;;;-145.41;100.00;58600.66;4991341;28;20041;-74
2023/06/25 10:09:02;;;;;;;6.57;3.72;;;;;;;-145.41;100.00;58600.66;4990846;28;20073;-74
2023/06/25 10:11:28;;;;;;;6.47;3.47;;;;;;;-145.41;100.00;58600.66;5007014;28;20044;-74
2023/06/25 10:13:53;;;;;;;4.78;3.72;;;;;;;-145.41;100.00;58600.66;4989286;28;20034;-74
2023/06/25 10:16:19;;;;;;;4.85;3.28;;;;;;;-145.41;100.00;58600.66;4989569;28;20400;-74
2023/06/25 10:18:46;;;;;;;5.72;3.65;;;;;;;-145.41;100.00;58600.66;4990710;28;20034;-74
2023/06/25 10:21:22;;;;;;;6.03;3.50;;;;;;;-145.41;100.00;58600.66;4974042;28;20034;-74
2023/06/25 10:23:59;;;;;;;5.28;3.45;;;;;;;-145.41;100.00;58600.66;4988319;28;20026;-74
2023/06/25 10:26:28;;;;;;;5.50;3.55;;;;;;;-145.41;100.00;58600.66;4989685;28;20038;-74
2023/06/25 10:28:54;;;;;;;5.40;3.70;;;;;;;-145.41;100.00;58600.66;4989563;28;20026;-74
2023/06/25 10:31:19;;;;;;;6.03;3.60;;;;;;;-145.41;100.00;58600.66;4989052;28;20485;-74
2023/06/25 10:33:45;;;;;;;4.97;3.47;;;;;;;-145.41;100.00;58600.66;4991252;28;20452;-74
2023/06/25 10:36:11;;;;;;;3.90;3.00;;;;;;;-145.41;100.00;58600.66;4991412;28;20069;-74
2023/06/25 10:38:37;;;;;;;4.53;3.38;;;;;;;-145.41;100.00;58600.66;4991312;28;20061;-74
2023/06/25 10:41:03;;;;;;;4.18;3.28;;;;;;;-145.41;100.00;58600.66;4990948;28;20034;-74
2023/06/25 10:43:28;;;;;;;4.90;3.25;;;;;;;-145.41;100.00;58600.66;4991057;28;20085;-75
2023/06/25 10:45:55;;;;;;;3.95;3.25;;;;;;;-145.41;100.00;58600.66;4991014;28;20034;-74
2023/06/25 10:48:22;;;;;;;4.65;3.17;;;;;;;-145.41;100.00;58600.66;4990926;28;20038;-74
2023/06/25 10:50:51;;;;;;;4.97;3.15;;;;;;;-145.41;100.00;58600.66;4990939;28;20051;-74
2023/06/25 10:53:19;;;;;;;4.95;3.58;;;;;;;-145.41;100.00;58600.66;4990952;28;20455;-74
2023/06/25 10:55:47;;;;;;;6.18;3.20;;;;;;;-145.41;100.00;58600.66;4972782;28;20065;-74
2023/06/25 10:58:22;;;;;;;5.05;3.75;;;;;;;-145.41;100.00;58600.66;4989261;28;20033;-74
2023/06/25 11:00:55;;;;;;;5.20;3.35;;;;;;;-145.41;100.00;58600.66;4991315;28;20034;-74
2023/06/25 11:03:21;;;;;;;6.38;3.30;;;;;;;-145.41;100.00;58600.66;4992562;28;20038;-74